Sacre-Coeur, Canada
Current Conditions -  °F | °C
As of 9:00 PM on Thursday 27 Nov 2014 (Local Time) from CYYY Reporting Station
Broken Clouds Broken Clouds  
Wind Chill:   Ceiling: 2500
Heat Index: 19°   Visibility: 30mi
Dew Point:   Wind: 12mph
Humidity: 63%   Direction: 350°N
Pressure: 30.03"   Gusts: NA
Location:  48.43°N, 68.58°W
Report Text: CYYY 280200Z 35010KT 30SM BKN025 M07/M13 A3003 RMK SC6 SLP173
Loading
Personal Weather Stations






























Interactive Weather Map New forecast layout! Learn more

10-Day Weather Forecast

Advertisements
Track Severe Weather on mobile